Gravelbourg, Canada
Current Conditions -  °F | °C
As of 3:09 AM on Monday 22 Dec 2014 (Local Time) from CYYN Reporting Station
Overcast Overcast  
Wind Chill:   Ceiling: 500
Heat Index: 19°   Visibility: 5mi
Dew Point: 19°   Wind: 18mph
Humidity: 100%   Direction: 310°NW
Pressure: 29.55"   Gusts: NA
Location:  49.88°N, 106.55°W
Report Text: CYYN 220909Z AUTO 31016KT 5SM BKN005 OVC016 M07/M07 A2955 RMK PCPN MISG SLP040
Loading
Personal Weather Stations






























Interactive Weather Map New forecast layout! Learn more

10-Day Weather Forecast

Advertisements
Track Severe Weather on mobile